Time;durP1;ratioP1;P1;durP2;ratioP2;P2;SDS_P1;SDS_P2;PMS_P1;PMS_P2;Temp;Humidity;BMP_temperature;BMP_pressure;BME280_temperature;BME280_humidity;BME280_pressure;Samples;Min_cycle;Max_cycle;Signal;HPM_P1;HPM_P2
2023/10/31 00:00:09;;;;;;;10.95;10.45;;;;;;;;;;5066132;28;20008;-63
2023/10/31 00:02:34;;;;;;;10.60;10.10;;;;;;;;;;5071599;28;20025;-63
2023/10/31 00:05:00;;;;;;;10.52;10.02;;;;;;;;;;5066816;28;20016;-63
2023/10/31 00:07:25;;;;;;;10.35;9.85;;;;;;;;;;5070434;28;20013;-62
2023/10/31 00:09:50;;;;;;;10.55;10.05;;;;;;;;;;5071744;28;20059;-62
2023/10/31 00:12:16;;;;;;;10.30;9.80;;;;;;;;;;5065415;28;20097;-62
2023/10/31 00:14:41;;;;;;;10.90;10.40;;;;;;;;;;5070657;28;20041;-62
2023/10/31 00:17:06;;;;;;;10.90;10.40;;;;;;;;;;5074714;28;20054;-63
2023/10/31 00:19:32;;;;;;;10.60;10.10;;;;;;;;;;5068188;28;20017;-62
2023/10/31 00:21:57;;;;;;;10.75;10.25;;;;;;;;;;5066743;28;20037;-64
2023/10/31 00:24:22;;;;;;;10.73;10.23;;;;;;;;;;5070332;28;20028;-62
2023/10/31 00:26:48;;;;;;;10.70;10.20;;;;;;;;;;5060058;28;20432;-62
2023/10/31 00:29:13;;;;;;;10.80;10.30;;;;;;;;;;5062131;28;20059;-62
2023/10/31 00:31:41;;;;;;;10.10;9.70;;;;;;;;;;5070741;28;20028;-62
2023/10/31 00:34:07;;;;;;;10.40;9.90;;;;;;;;;;5070154;28;20074;-63
2023/10/31 00:36:32;;;;;;;10.40;9.90;;;;;;;;;;5074514;28;20036;-63
2023/10/31 00:38:58;;;;;;;10.60;10.10;;;;;;;;;;5067616;28;20045;-62
2023/10/31 00:41:23;;;;;;;10.50;10.00;;;;;;;;;;5073766;28;20074;-62
2023/10/31 00:43:48;;;;;;;10.60;10.10;;;;;;;;;;5073112;28;20028;-63
2023/10/31 00:46:14;;;;;;;10.18;9.75;;;;;;;;;;5067917;28;20030;-63
2023/10/31 00:48:39;;;;;;;10.30;9.80;;;;;;;;;;5065385;28;20033;-63
2023/10/31 00:51:04;;;;;;;10.63;10.13;;;;;;;;;;5075794;28;20062;-63
2023/10/31 00:53:31;;;;;;;11.05;10.55;;;;;;;;;;5071704;28;20055;-63
2023/10/31 00:55:56;;;;;;;10.05;9.65;;;;;;;;;;5074470;28;20050;-63
2023/10/31 00:58:21;;;;;;;10.50;10.00;;;;;;;;;;5068158;28;20439;-63
2023/10/31 01:00:47;;;;;;;10.65;10.15;;;;;;;;;;5073739;28;20033;-63
2023/10/31 01:03:12;;;;;;;10.48;9.98;;;;;;;;;;5066049;28;20048;-63
2023/10/31 01:05:38;;;;;;;10.60;10.10;;;;;;;;;;5075133;28;20013;-63
2023/10/31 01:08:03;;;;;;;10.10;9.63;;;;;;;;;;5072508;28;20016;-63
2023/10/31 01:10:28;;;;;;;10.80;10.30;;;;;;;;;;5073681;28;20119;-63
2023/10/31 01:12:54;;;;;;;10.38;9.88;;;;;;;;;;5073085;28;20026;-63
2023/10/31 01:15:19;;;;;;;10.02;9.60;;;;;;;;;;5071446;28;20049;-62
2023/10/31 01:17:44;;;;;;;10.50;10.00;;;;;;;;;;5065648;28;20017;-64
2023/10/31 01:20:10;;;;;;;10.88;10.38;;;;;;;;;;5069632;28;20053;-64
2023/10/31 01:22:35;;;;;;;10.45;9.95;;;;;;;;;;5072640;28;20025;-63
2023/10/31 01:25:01;;;;;;;10.23;9.77;;;;;;;;;;5073594;28;20017;-63
2023/10/31 01:27:26;;;;;;;10.60;10.10;;;;;;;;;;5074497;28;20024;-63
2023/10/31 01:29:51;;;;;;;10.63;10.13;;;;;;;;;;5072107;28;20146;-62
2023/10/31 01:32:18;;;;;;;10.93;10.43;;;;;;;;;;5069124;28;20016;-62
2023/10/31 01:34:43;;;;;;;10.50;10.00;;;;;;;;;;5069895;28;20028;-63
2023/10/31 01:37:08;;;;;;;10.48;9.98;;;;;;;;;;5067163;28;20044;-62
2023/10/31 01:39:35;;;;;;;10.90;10.40;;;;;;;;;;5058482;28;20382;-62
2023/10/31 01:42:01;;;;;;;10.57;10.07;;;;;;;;;;5066031;28;20020;-63
2023/10/31 01:44:26;;;;;;;10.90;10.40;;;;;;;;;;5072474;28;20066;-62
2023/10/31 01:46:52;;;;;;;10.60;10.10;;;;;;;;;;5074449;28;20032;-62
2023/10/31 01:49:17;;;;;;;10.43;9.93;;;;;;;;;;5072777;28;20054;-63
2023/10/31 01:51:42;;;;;;;10.48;9.98;;;;;;;;;;5072773;28;20016;-64
2023/10/31 01:54:09;;;;;;;10.70;10.20;;;;;;;;;;5067787;28;21738;-60
2023/10/31 01:56:34;;;;;;;10.27;9.77;;;;;;;;;;5071191;28;20024;-59
2023/10/31 01:59:00;;;;;;;10.27;9.77;;;;;;;;;;5059947;28;20058;-62
2023/10/31 02:01:25;;;;;;;10.70;10.20;;;;;;;;;;5074208;28;20024;-60
2023/10/31 02:03:50;;;;;;;10.80;10.30;;;;;;;;;;5071870;28;20024;-63
2023/10/31 02:06:16;;;;;;;9.98;9.57;;;;;;;;;;5070984;28;20016;-62
2023/10/31 02:08:41;;;;;;;10.60;10.10;;;;;;;;;;5066027;28;20640;-63
2023/10/31 02:11:10;;;;;;;11.02;10.52;;;;;;;;;;5069870;28;20044;-63
2023/10/31 02:13:35;;;;;;;10.65;10.15;;;;;;;;;;5070882;28;20056;-62
2023/10/31 02:16:01;;;;;;;10.10;9.70;;;;;;;;;;5073022;28;20480;-63
2023/10/31 02:18:27;;;;;;;10.60;10.10;;;;;;;;;;5071916;28;20492;-63
2023/10/31 02:20:52;;;;;;;10.68;10.18;;;;;;;;;;5070266;28;20020;-63
2023/10/31 02:23:17;;;;;;;10.70;10.20;;;;;;;;;;5071613;28;20025;-62
2023/10/31 02:25:43;;;;;;;10.48;9.98;;;;;;;;;;5072033;28;20023;-63
2023/10/31 02:28:08;;;;;;;10.50;10.00;;;;;;;;;;5071782;28;20416;-63
2023/10/31 02:30:34;;;;;;;10.82;10.32;;;;;;;;;;5070371;28;20485;-62
2023/10/31 02:33:00;;;;;;;10.90;10.40;;;;;;;;;;5062370;28;20397;-62
2023/10/31 02:35:26;;;;;;;10.88;10.38;;;;;;;;;;5070662;28;20024;-62
2023/10/31 02:37:51;;;;;;;10.35;9.85;;;;;;;;;;5066807;28;20013;-63
2023/10/31 02:40:16;;;;;;;10.60;10.10;;;;;;;;;;5075180;28;20020;-63
2023/10/31 02:42:42;;;;;;;10.80;10.30;;;;;;;;;;5072499;28;20020;-63
2023/10/31 02:45:07;;;;;;;10.30;9.80;;;;;;;;;;5066470;28;20024;-63
2023/10/31 02:47:33;;;;;;;10.57;10.07;;;;;;;;;;5064304;28;20025;-64
2023/10/31 02:49:58;;;;;;;10.15;9.70;;;;;;;;;;5078185;28;20016;-63
2023/10/31 02:52:23;;;;;;;10.35;9.85;;;;;;;;;;5064817;28;20019;-63
2023/10/31 02:54:49;;;;;;;10.57;10.07;;;;;;;;;;5069976;28;20028;-63
2023/10/31 02:57:15;;;;;;;10.40;9.90;;;;;;;;;;5070403;28;20354;-63
2023/10/31 02:59:40;;;;;;;10.70;10.20;;;;;;;;;;5073358;28;20028;-63
2023/10/31 03:02:06;;;;;;;10.35;9.85;;;;;;;;;;5069543;28;20017;-63
2023/10/31 03:04:31;;;;;;;10.40;9.90;;;;;;;;;;5065549;28;20397;-63
2023/10/31 03:06:56;;;;;;;10.50;10.00;;;;;;;;;;5074892;28;20044;-63
2023/10/31 03:09:22;;;;;;;10.05;9.65;;;;;;;;;;5064076;28;20109;-63
2023/10/31 03:11:47;;;;;;;10.77;10.27;;;;;;;;;;5068303;28;20048;-62
2023/10/31 03:14:12;;;;;;;10.43;9.93;;;;;;;;;;5068648;28;20123;-62
2023/10/31 03:16:38;;;;;;;10.10;9.68;;;;;;;;;;5073105;28;20397;-62
2023/10/31 03:19:04;;;;;;;10.40;9.90;;;;;;;;;;5070125;28;20028;-63
2023/10/31 03:21:29;;;;;;;10.00;9.60;;;;;;;;;;5068052;28;20020;-62
2023/10/31 03:23:55;;;;;;;10.35;9.85;;;;;;;;;;5063911;28;20024;-63
2023/10/31 03:26:21;;;;;;;10.20;9.70;;;;;;;;;;5078713;28;20024;-63
2023/10/31 03:28:46;;;;;;;10.73;10.23;;;;;;;;;;5071214;28;20027;-62
2023/10/31 03:31:12;;;;;;;10.93;10.43;;;;;;;;;;5072834;28;20048;-61
2023/10/31 03:33:37;;;;;;;10.98;10.48;;;;;;;;;;5072915;28;20016;-62
2023/10/31 03:36:03;;;;;;;11.18;10.68;;;;;;;;;;5067503;28;20060;-62
2023/10/31 03:38:28;;;;;;;10.63;10.13;;;;;;;;;;5071140;28;20034;-62
2023/10/31 03:40:54;;;;;;;10.57;10.07;;;;;;;;;;5083550;28;20047;-62
2023/10/31 03:43:19;;;;;;;10.73;10.23;;;;;;;;;;5067222;28;20070;-63
2023/10/31 03:45:45;;;;;;;10.30;9.80;;;;;;;;;;5071678;28;20020;-62
2023/10/31 03:48:11;;;;;;;10.15;9.70;;;;;;;;;;5071599;28;20028;-62
2023/10/31 03:50:36;;;;;;;10.55;10.05;;;;;;;;;;5062436;28;20108;-61
2023/10/31 03:53:01;;;;;;;10.80;10.30;;;;;;;;;;5063266;28;20090;-63
2023/10/31 03:55:26;;;;;;;10.70;10.20;;;;;;;;;;5064682;28;20039;-63
2023/10/31 03:57:52;;;;;;;10.35;9.85;;;;;;;;;;5070844;28;20023;-62
2023/10/31 04:00:18;;;;;;;10.52;10.02;;;;;;;;;;5070806;28;20016;-62
2023/10/31 04:02:43;;;;;;;10.57;10.07;;;;;;;;;;5072038;28;20035;-63
2023/10/31 04:05:09;;;;;;;10.77;10.27;;;;;;;;;;5068318;28;20536;-63
2023/10/31 04:07:34;;;;;;;10.15;9.70;;;;;;;;;;5064664;28;20028;-63
2023/10/31 04:09:59;;;;;;;10.68;10.18;;;;;;;;;;5071763;28;20087;-63
2023/10/31 04:12:25;;;;;;;11.00;10.50;;;;;;;;;;5074527;28;20024;-62
2023/10/31 04:14:50;;;;;;;10.98;10.48;;;;;;;;;;5072090;28;20127;-62
2023/10/31 04:17:15;;;;;;;10.60;10.10;;;;;;;;;;5071932;28;20016;-63
2023/10/31 04:19:41;;;;;;;10.60;10.10;;;;;;;;;;5068065;28;20020;-62
2023/10/31 04:22:06;;;;;;;10.45;9.95;;;;;;;;;;5076210;28;20009;-63
2023/10/31 04:24:31;;;;;;;10.52;10.02;;;;;;;;;;5073468;28;20025;-62
2023/10/31 04:26:57;;;;;;;10.90;10.40;;;;;;;;;;5070870;28;20025;-63
2023/10/31 04:29:22;;;;;;;10.95;10.45;;;;;;;;;;5073795;28;20705;-63
2023/10/31 04:31:47;;;;;;;10.60;10.10;;;;;;;;;;5069154;28;20033;-62
2023/10/31 04:34:13;;;;;;;10.20;9.73;;;;;;;;;;5065300;28;20108;-62
2023/10/31 04:36:39;;;;;;;10.15;9.68;;;;;;;;;;5072536;28;20021;-63
2023/10/31 04:39:05;;;;;;;10.38;9.88;;;;;;;;;;5069084;28;20032;-64
2023/10/31 04:41:30;;;;;;;10.68;10.18;;;;;;;;;;5072724;28;20012;-63
2023/10/31 04:43:56;;;;;;;10.60;10.10;;;;;;;;;;5070118;28;20703;-63
2023/10/31 04:46:21;;;;;;;10.70;10.20;;;;;;;;;;5081527;28;20056;-63
2023/10/31 04:48:46;;;;;;;10.50;10.00;;;;;;;;;;5074151;28;20138;-63
2023/10/31 04:51:12;;;;;;;11.07;10.57;;;;;;;;;;5074157;28;20428;-63
2023/10/31 04:53:37;;;;;;;10.45;9.95;;;;;;;;;;5067860;28;20390;-63
2023/10/31 04:56:03;;;;;;;10.20;9.70;;;;;;;;;;5074040;28;20016;-62
2023/10/31 04:58:28;;;;;;;10.45;9.95;;;;;;;;;;5073120;28;20081;-63
2023/10/31 05:00:53;;;;;;;10.88;10.38;;;;;;;;;;5072184;28;20090;-64
2023/10/31 05:03:19;;;;;;;10.40;9.90;;;;;;;;;;5070273;28;20078;-63
2023/10/31 05:05:44;;;;;;;10.52;10.02;;;;;;;;;;5069577;28;20489;-63
2023/10/31 05:08:09;;;;;;;10.40;9.90;;;;;;;;;;5074587;28;20378;-64
2023/10/31 05:10:35;;;;;;;11.30;10.80;;;;;;;;;;5077689;28;20389;-63
2023/10/31 05:13:02;;;;;;;10.40;9.90;;;;;;;;;;5073866;28;20146;-63
2023/10/31 05:15:27;;;;;;;10.60;10.10;;;;;;;;;;5074022;28;20089;-65
2023/10/31 05:17:52;;;;;;;10.38;9.88;;;;;;;;;;5062884;28;20020;-62
2023/10/31 05:20:18;;;;;;;11.48;10.98;;;;;;;;;;5078651;28;20117;-63
2023/10/31 05:22:43;;;;;;;10.80;10.30;;;;;;;;;;5070755;28;20024;-64
2023/10/31 05:25:08;;;;;;;11.20;10.70;;;;;;;;;;5062015;28;20023;-63
2023/10/31 05:27:33;;;;;;;10.85;10.35;;;;;;;;;;5074709;28;20016;-63
2023/10/31 05:29:59;;;;;;;11.50;11.00;;;;;;;;;;5064521;28;20103;-65
2023/10/31 05:32:24;;;;;;;11.45;10.95;;;;;;;;;;5074324;28;20029;-62
2023/10/31 05:34:49;;;;;;;11.30;10.80;;;;;;;;;;5070693;28;20111;-64
2023/10/31 05:37:15;;;;;;;11.30;10.80;;;;;;;;;;5077483;28;20012;-63
2023/10/31 05:39:40;;;;;;;11.50;11.00;;;;;;;;;;5072791;28;20019;-63
2023/10/31 05:42:05;;;;;;;11.18;10.68;;;;;;;;;;5073499;28;20062;-63
2023/10/31 05:44:31;;;;;;;11.52;11.02;;;;;;;;;;5071467;28;20027;-63
2023/10/31 05:46:56;;;;;;;11.73;11.23;;;;;;;;;;5081969;28;20024;-64
2023/10/31 05:49:21;;;;;;;11.68;11.18;;;;;;;;;;5071348;28;20442;-63
2023/10/31 05:51:50;;;;;;;11.68;11.18;;;;;;;;;;5076812;28;20020;-63
2023/10/31 05:54:15;;;;;;;11.77;11.27;;;;;;;;;;5073724;28;20361;-63
2023/10/31 05:56:42;;;;;;;11.73;11.23;;;;;;;;;;5080308;28;20040;-63
2023/10/31 05:59:07;;;;;;;11.82;11.32;;;;;;;;;;5070065;28;20020;-63
2023/10/31 06:01:32;;;;;;;11.63;11.13;;;;;;;;;;5074775;28;20051;-65
2023/10/31 06:03:58;;;;;;;11.70;11.20;;;;;;;;;;5066203;28;20040;-63
2023/10/31 06:06:23;;;;;;;12.20;11.70;;;;;;;;;;5069601;28;20527;-63
2023/10/31 06:08:48;;;;;;;12.27;11.77;;;;;;;;;;5079614;28;20416;-63
2023/10/31 06:11:14;;;;;;;11.73;11.23;;;;;;;;;;5081342;28;20016;-63
2023/10/31 06:13:39;;;;;;;11.50;11.00;;;;;;;;;;5070568;28;20135;-64
2023/10/31 06:16:04;;;;;;;11.80;11.30;;;;;;;;;;5072802;28;20005;-63
2023/10/31 06:18:30;;;;;;;11.75;11.25;;;;;;;;;;5070765;28;20505;-63
2023/10/31 06:20:55;;;;;;;12.18;11.68;;;;;;;;;;5070196;28;20040;-63
2023/10/31 06:23:21;;;;;;;12.00;11.50;;;;;;;;;;5072119;28;20025;-63
2023/10/31 06:25:46;;;;;;;11.80;11.30;;;;;;;;;;5064770;28;20035;-64
2023/10/31 06:28:11;;;;;;;12.00;11.50;;;;;;;;;;5074180;28;20116;-63
2023/10/31 06:30:37;;;;;;;11.90;11.40;;;;;;;;;;5068830;28;20024;-63
2023/10/31 06:33:02;;;;;;;11.70;11.20;;;;;;;;;;5068314;28;20435;-63
2023/10/31 06:35:27;;;;;;;11.82;11.32;;;;;;;;;;5078228;28;20092;-64
2023/10/31 06:37:54;;;;;;;11.70;11.20;;;;;;;;;;5076495;28;20013;-65
2023/10/31 06:40:20;;;;;;;11.80;11.30;;;;;;;;;;5065973;28;20009;-64
2023/10/31 06:42:45;;;;;;;11.77;11.27;;;;;;;;;;5067066;28;20032;-64
2023/10/31 06:45:10;;;;;;;12.00;11.50;;;;;;;;;;5069142;28;20394;-64
2023/10/31 06:47:35;;;;;;;11.93;11.43;;;;;;;;;;5074229;28;20552;-63
2023/10/31 06:50:01;;;;;;;11.80;11.30;;;;;;;;;;5074536;28;20032;-64
2023/10/31 06:52:26;;;;;;;11.80;11.30;;;;;;;;;;5072221;28;20024;-64
2023/10/31 06:54:52;;;;;;;11.88;11.38;;;;;;;;;;5074532;28;20028;-64
2023/10/31 06:57:17;;;;;;;11.75;11.25;;;;;;;;;;5075130;28;20057;-64
2023/10/31 06:59:42;;;;;;;11.82;11.32;;;;;;;;;;5066177;28;20044;-64
2023/10/31 07:02:08;;;;;;;12.00;11.50;;;;;;;;;;5071955;28;20038;-64
2023/10/31 07:04:34;;;;;;;11.57;11.07;;;;;;;;;;5069483;28;20334;-64
2023/10/31 07:06:59;;;;;;;11.90;11.40;;;;;;;;;;5073829;28;20059;-63
2023/10/31 07:09:25;;;;;;;11.63;11.13;;;;;;;;;;5067624;28;20366;-64
2023/10/31 07:11:51;;;;;;;11.77;11.27;;;;;;;;;;5076106;28;20500;-64
2023/10/31 07:14:16;;;;;;;11.85;11.35;;;;;;;;;;5069810;28;20090;-63
2023/10/31 07:16:43;;;;;;;11.93;11.43;;;;;;;;;;5072556;28;20024;-64
2023/10/31 07:19:09;;;;;;;11.77;11.27;;;;;;;;;;5059081;28;20025;-64
2023/10/31 07:21:34;;;;;;;11.88;11.38;;;;;;;;;;5070635;28;20023;-63
2023/10/31 07:23:59;;;;;;;11.55;11.05;;;;;;;;;;5068819;28;20064;-64
2023/10/31 07:26:27;;;;;;;11.60;11.10;;;;;;;;;;5069299;28;20040;-64
2023/10/31 07:28:52;;;;;;;11.60;11.10;;;;;;;;;;5067910;28;20108;-65
2023/10/31 07:31:17;;;;;;;11.38;10.88;;;;;;;;;;5066856;28;20545;-65
2023/10/31 07:33:43;;;;;;;11.68;11.18;;;;;;;;;;5059055;28;20112;-65
2023/10/31 07:36:09;;;;;;;11.90;11.40;;;;;;;;;;5054999;28;20054;-63
2023/10/31 07:38:35;;;;;;;11.70;11.20;;;;;;;;;;5065602;28;20012;-64
2023/10/31 07:41:01;;;;;;;11.65;11.15;;;;;;;;;;5069797;28;20043;-64
2023/10/31 07:43:26;;;;;;;11.80;11.30;;;;;;;;;;5070770;28;20525;-64
2023/10/31 07:45:51;;;;;;;11.63;11.02;;;;;;;;;;5070614;28;20434;-63
2023/10/31 07:48:17;;;;;;;11.80;11.30;;;;;;;;;;5071039;28;20024;-62
2023/10/31 07:50:42;;;;;;;11.80;11.30;;;;;;;;;;5068595;28;20024;-64
2023/10/31 07:53:07;;;;;;;11.70;11.20;;;;;;;;;;5070006;28;20277;-64
2023/10/31 07:55:33;;;;;;;11.85;11.35;;;;;;;;;;5070606;28;20281;-64
2023/10/31 07:57:58;;;;;;;11.80;11.30;;;;;;;;;;5067676;28;20440;-63
2023/10/31 08:00:23;;;;;;;11.77;11.27;;;;;;;;;;5069747;28;20020;-64
2023/10/31 08:02:48;;;;;;;11.98;11.48;;;;;;;;;;5065728;28;20256;-65
2023/10/31 08:05:14;;;;;;;11.82;11.32;;;;;;;;;;5072296;28;20025;-62
2023/10/31 08:07:39;;;;;;;11.73;11.23;;;;;;;;;;5065618;28;20031;-63
2023/10/31 08:10:05;;;;;;;11.95;11.45;;;;;;;;;;5068098;28;20012;-63
2023/10/31 08:12:30;;;;;;;12.07;11.57;;;;;;;;;;5062731;28;20037;-65
2023/10/31 08:14:55;;;;;;;11.95;11.45;;;;;;;;;;5063853;28;20069;-62
2023/10/31 08:17:22;;;;;;;12.13;11.63;;;;;;;;;;5064322;28;20052;-63
2023/10/31 08:19:47;;;;;;;12.00;11.50;;;;;;;;;;5064482;28;20521;-63
2023/10/31 08:22:13;;;;;;;11.98;11.48;;;;;;;;;;5067653;28;20460;-63
2023/10/31 08:24:38;;;;;;;12.00;11.50;;;;;;;;;;5069345;28;20030;-63
2023/10/31 08:27:04;;;;;;;12.10;11.60;;;;;;;;;;5063149;28;20024;-63
2023/10/31 08:29:29;;;;;;;12.20;11.70;;;;;;;;;;5068337;28;20029;-62
2023/10/31 08:31:55;;;;;;;11.88;11.38;;;;;;;;;;5070598;28;20035;-64
2023/10/31 08:34:20;;;;;;;11.95;11.45;;;;;;;;;;5071133;28;20055;-64
2023/10/31 08:36:45;;;;;;;12.00;11.50;;;;;;;;;;5072962;28;20039;-64
2023/10/31 08:39:11;;;;;;;12.00;11.50;;;;;;;;;;5070062;28;20359;-64
2023/10/31 08:41:38;;;;;;;11.85;11.35;;;;;;;;;;5065295;28;20029;-64
2023/10/31 08:44:04;;;;;;;11.57;11.07;;;;;;;;;;5069054;28;20051;-65
2023/10/31 08:46:29;;;;;;;11.80;11.30;;;;;;;;;;5067583;28;20497;-63
2023/10/31 08:48:54;;;;;;;11.80;11.30;;;;;;;;;;5068208;28;20024;-64
2023/10/31 08:51:20;;;;;;;11.98;11.48;;;;;;;;;;5073932;28;20610;-64
2023/10/31 08:53:45;;;;;;;11.57;11.07;;;;;;;;;;5068689;28;20625;-63
2023/10/31 08:56:10;;;;;;;11.48;10.98;;;;;;;;;;5080283;28;20014;-65
2023/10/31 08:58:36;;;;;;;11.68;11.18;;;;;;;;;;5065240;28;20017;-63
2023/10/31 09:01:01;;;;;;;11.48;10.98;;;;;;;;;;5073049;28;20020;-64
2023/10/31 09:03:26;;;;;;;11.70;11.20;;;;;;;;;;5071902;28;20032;-64
2023/10/31 09:05:52;;;;;;;11.90;11.40;;;;;;;;;;5070959;28;20023;-62
2023/10/31 09:08:18;;;;;;;11.60;11.10;;;;;;;;;;5072412;28;20035;-63
2023/10/31 09:10:45;;;;;;;11.68;11.18;;;;;;;;;;5075669;28;20551;-64
2023/10/31 09:13:11;;;;;;;11.50;11.00;;;;;;;;;;5079181;28;20058;-62
2023/10/31 09:15:36;;;;;;;11.45;10.95;;;;;;;;;;5069435;28;20443;-63
2023/10/31 09:18:02;;;;;;;11.05;10.55;;;;;;;;;;5069699;28;20016;-64
2023/10/31 09:20:27;;;;;;;11.45;10.95;;;;;;;;;;5063496;28;20047;-63
2023/10/31 09:22:53;;;;;;;11.23;10.73;;;;;;;;;;5083543;28;20047;-63
2023/10/31 09:25:18;;;;;;;11.98;11.48;;;;;;;;;;5067915;28;20044;-63
2023/10/31 09:27:44;;;;;;;11.50;11.00;;;;;;;;;;5065548;28;20020;-63
2023/10/31 09:30:09;;;;;;;11.50;11.00;;;;;;;;;;5070485;28;20021;-63
2023/10/31 09:32:34;;;;;;;11.75;11.25;;;;;;;;;;5072307;28;20066;-64
2023/10/31 09:35:00;;;;;;;11.50;11.00;;;;;;;;;;5071324;28;20596;-64
2023/10/31 09:37:25;;;;;;;11.70;11.20;;;;;;;;;;5076751;28;20054;-63
2023/10/31 09:39:50;;;;;;;11.50;11.00;;;;;;;;;;5071920;28;20432;-64
2023/10/31 09:42:16;;;;;;;11.73;11.23;;;;;;;;;;5073015;28;20032;-63
2023/10/31 09:44:41;;;;;;;11.70;11.20;;;;;;;;;;5068968;28;20025;-65
2023/10/31 09:47:06;;;;;;;11.52;11.02;;;;;;;;;;5070488;28;20020;-64
2023/10/31 09:49:32;;;;;;;11.50;11.00;;;;;;;;;;5074965;28;20025;-64
2023/10/31 09:51:59;;;;;;;11.70;11.20;;;;;;;;;;5071153;28;20029;-63
2023/10/31 09:54:25;;;;;;;11.50;11.00;;;;;;;;;;5070580;28;20654;-63
2023/10/31 09:56:51;;;;;;;11.27;10.77;;;;;;;;;;5070861;28;20091;-63
2023/10/31 09:59:16;;;;;;;11.90;11.40;;;;;;;;;;5064819;28;20059;-64
2023/10/31 10:01:42;;;;;;;11.63;11.13;;;;;;;;;;5067347;28;20096;-64
2023/10/31 10:04:07;;;;;;;11.27;10.77;;;;;;;;;;5072827;28;20024;-64
2023/10/31 10:06:32;;;;;;;11.25;10.75;;;;;;;;;;5069047;28;20028;-63
2023/10/31 10:08:58;;;;;;;11.40;10.90;;;;;;;;;;5063872;28;20507;-64
2023/10/31 10:11:24;;;;;;;11.52;11.02;;;;;;;;;;5072399;28;20013;-64
2023/10/31 10:13:51;;;;;;;11.32;10.82;;;;;;;;;;5065607;28;20181;-65
2023/10/31 10:16:31;;;;;;;11.60;11.10;;;;;;;;;;5059517;28;20017;-64
2023/10/31 10:18:57;;;;;;;11.45;10.95;;;;;;;;;;5073923;28;20106;-64
2023/10/31 10:21:22;;;;;;;11.57;11.07;;;;;;;;;;5065228;28;20100;-65
2023/10/31 10:23:50;;;;;;;11.80;11.30;;;;;;;;;;5067854;28;20024;-64
2023/10/31 10:26:15;;;;;;;11.30;10.80;;;;;;;;;;5063394;28;20064;-63
2023/10/31 10:28:41;;;;;;;11.40;10.90;;;;;;;;;;5072582;28;20052;-64
2023/10/31 10:31:07;;;;;;;11.80;11.30;;;;;;;;;;5070027;28;20020;-64
2023/10/31 10:33:33;;;;;;;11.80;11.30;;;;;;;;;;5071806;28;20028;-63
2023/10/31 10:35:59;;;;;;;12.00;11.50;;;;;;;;;;5062312;28;20013;-62
2023/10/31 10:38:25;;;;;;;11.13;10.63;;;;;;;;;;5068448;28;20013;-63
2023/10/31 10:40:50;;;;;;;11.13;10.63;;;;;;;;;;5070471;28;20024;-64
2023/10/31 10:43:22;;;;;;;11.63;11.13;;;;;;;;;;5070164;28;20029;-63
2023/10/31 10:45:52;;;;;;;11.68;11.18;;;;;;;;;;5071493;28;20150;-64
2023/10/31 10:48:19;;;;;;;11.68;11.18;;;;;;;;;;5071504;28;20022;-63
2023/10/31 10:50:45;;;;;;;11.70;11.20;;;;;;;;;;5083522;28;20027;-64
2023/10/31 10:53:20;;;;;;;11.35;10.85;;;;;;;;;;5074654;28;20016;-63
2023/10/31 10:55:46;;;;;;;11.38;10.88;;;;;;;;;;5085062;28;20089;-65
2023/10/31 10:58:21;;;;;;;11.82;11.32;;;;;;;;;;5060502;28;20021;-63
2023/10/31 11:00:46;;;;;;;11.55;11.05;;;;;;;;;;5056583;28;20517;-64
2023/10/31 11:03:12;;;;;;;11.70;11.20;;;;;;;;;;5070875;28;20040;-63
2023/10/31 11:05:38;;;;;;;11.07;10.57;;;;;;;;;;5052098;28;20052;-64
2023/10/31 11:08:04;;;;;;;11.95;11.45;;;;;;;;;;5065776;28;20389;-65
2023/10/31 11:10:29;;;;;;;11.63;11.13;;;;;;;;;;5064696;28;20070;-64
2023/10/31 11:12:56;;;;;;;11.63;11.13;;;;;;;;;;5068139;28;20389;-64
2023/10/31 11:15:22;;;;;;;11.98;11.48;;;;;;;;;;5067144;28;20044;-63
2023/10/31 11:17:48;;;;;;;11.65;11.15;;;;;;;;;;5056385;28;20104;-63
2023/10/31 11:20:15;;;;;;;11.80;11.30;;;;;;;;;;5071046;28;20576;-63
2023/10/31 11:22:49;;;;;;;11.80;11.30;;;;;;;;;;5070961;28;20029;-62
2023/10/31 11:25:20;;;;;;;11.57;11.07;;;;;;;;;;5073044;28;20051;-63
2023/10/31 11:27:45;;;;;;;11.52;11.02;;;;;;;;;;5071770;28;20039;-64
2023/10/31 11:30:32;;;;;;;11.77;11.27;;;;;;;;;;5069880;28;20024;-61
2023/10/31 11:33:01;;;;;;;11.80;11.30;;;;;;;;;;5079788;28;20032;-63
2023/10/31 11:35:29;;;;;;;11.80;11.30;;;;;;;;;;5069549;28;20486;-64
2023/10/31 11:38:07;;;;;;;11.70;11.20;;;;;;;;;;5071416;28;20032;-65
2023/10/31 11:40:33;;;;;;;11.65;11.15;;;;;;;;;;5062767;28;20314;-64
2023/10/31 11:43:01;;;;;;;11.50;11.00;;;;;;;;;;5079565;28;20114;-64
2023/10/31 11:45:30;;;;;;;11.55;11.05;;;;;;;;;;5064867;28;20480;-64
2023/10/31 11:47:55;;;;;;;11.73;11.23;;;;;;;;;;5068520;28;20157;-65
2023/10/31 11:50:21;;;;;;;11.60;11.10;;;;;;;;;;5069929;28;20099;-67
2023/10/31 11:52:57;;;;;;;11.65;11.15;;;;;;;;;;5069996;28;20020;-64
2023/10/31 11:55:23;;;;;;;11.60;11.10;;;;;;;;;;5068054;28;20043;-63
2023/10/31 11:57:49;;;;;;;11.35;10.85;;;;;;;;;;5066927;28;20026;-63
2023/10/31 12:00:23;;;;;;;11.45;10.95;;;;;;;;;;5061540;28;20021;-64
2023/10/31 12:03:01;;;;;;;11.50;11.00;;;;;;;;;;5071862;28;20069;-64
2023/10/31 12:05:27;;;;;;;11.50;11.00;;;;;;;;;;5065273;28;20024;-63
2023/10/31 12:07:53;;;;;;;11.90;11.40;;;;;;;;;;5066231;28;20474;-63
2023/10/31 12:10:26;;;;;;;11.13;10.63;;;;;;;;;;5071134;28;20020;-64
2023/10/31 12:12:52;;;;;;;11.60;11.10;;;;;;;;;;5065125;28;20031;-63
2023/10/31 12:15:17;;;;;;;12.15;11.65;;;;;;;;;;5075480;28;20709;-64
2023/10/31 12:17:44;;;;;;;11.65;11.15;;;;;;;;;;5067776;28;20021;-64
2023/10/31 12:20:09;;;;;;;11.25;10.75;;;;;;;;;;5070058;28;20028;-63
2023/10/31 12:22:35;;;;;;;12.15;11.65;;;;;;;;;;5074057;28;20107;-64
2023/10/31 12:25:04;;;;;;;11.60;11.10;;;;;;;;;;5062912;28;20074;-63
2023/10/31 12:27:43;;;;;;;11.80;11.30;;;;;;;;;;5066289;28;20055;-63
2023/10/31 12:30:08;;;;;;;11.50;11.00;;;;;;;;;;5070809;28;20113;-63
2023/10/31 12:32:34;;;;;;;11.75;11.25;;;;;;;;;;5074114;28;20028;-64
2023/10/31 12:34:59;;;;;;;11.80;11.30;;;;;;;;;;5077192;28;20025;-63
2023/10/31 12:37:24;;;;;;;11.52;11.02;;;;;;;;;;5079010;28;20398;-63
2023/10/31 12:39:50;;;;;;;11.68;11.18;;;;;;;;;;5071901;28;20078;-64
2023/10/31 12:42:16;;;;;;;11.40;10.90;;;;;;;;;;5074485;28;20024;-63
2023/10/31 12:44:42;;;;;;;11.55;11.05;;;;;;;;;;5073143;28;20021;-63
2023/10/31 12:47:08;;;;;;;11.50;11.00;;;;;;;;;;5070960;28;20030;-63
2023/10/31 12:49:33;;;;;;;11.50;11.00;;;;;;;;;;5071333;28;20066;-64
2023/10/31 12:51:59;;;;;;;12.35;11.77;;;;;;;;;;5062395;28;20052;-63
2023/10/31 12:54:31;;;;;;;11.85;11.35;;;;;;;;;;5078623;28;20050;-63
2023/10/31 12:57:04;;;;;;;11.95;11.45;;;;;;;;;;5072991;28;20584;-63
2023/10/31 12:59:29;;;;;;;11.45;10.95;;;;;;;;;;5068754;28;20075;-64
2023/10/31 13:01:55;;;;;;;11.43;10.93;;;;;;;;;;5072075;28;20489;-64
2023/10/31 13:04:26;;;;;;;11.52;11.02;;;;;;;;;;5073191;28;20081;-63
2023/10/31 13:07:07;;;;;;;11.35;10.85;;;;;;;;;;5073736;28;20021;-64
2023/10/31 13:09:35;;;;;;;11.70;11.20;;;;;;;;;;5069941;28;20477;-64
2023/10/31 13:12:01;;;;;;;11.63;11.13;;;;;;;;;;5068254;28;20036;-64
2023/10/31 13:14:26;;;;;;;11.80;11.30;;;;;;;;;;5066179;28;20060;-64
2023/10/31 13:16:51;;;;;;;12.10;11.60;;;;;;;;;;5065232;28;20077;-63
2023/10/31 13:19:17;;;;;;;11.60;11.10;;;;;;;;;;5070365;28;20043;-64
2023/10/31 13:21:42;;;;;;;11.68;11.18;;;;;;;;;;5069436;28;20013;-64
2023/10/31 13:24:08;;;;;;;11.45;10.95;;;;;;;;;;5069756;28;20021;-64
2023/10/31 13:26:33;;;;;;;11.70;11.20;;;;;;;;;;5068461;28;20020;-65
2023/10/31 13:28:58;;;;;;;12.07;11.57;;;;;;;;;;5076395;28;20133;-64
2023/10/31 13:31:24;;;;;;;11.45;10.95;;;;;;;;;;5063893;28;20093;-64
2023/10/31 13:33:49;;;;;;;11.80;11.30;;;;;;;;;;5069392;28;20440;-64
2023/10/31 13:36:15;;;;;;;11.80;11.30;;;;;;;;;;5062105;28;20017;-64
2023/10/31 13:38:40;;;;;;;11.90;11.40;;;;;;;;;;5059915;28;20025;-64
2023/10/31 13:41:06;;;;;;;11.68;11.18;;;;;;;;;;5066723;28;20017;-64
2023/10/31 13:43:31;;;;;;;11.82;11.32;;;;;;;;;;5063929;28;20027;-64
2023/10/31 13:45:56;;;;;;;11.70;11.20;;;;;;;;;;5071426;28;20013;-64
2023/10/31 13:48:22;;;;;;;11.35;10.85;;;;;;;;;;5075287;28;20477;-64
2023/10/31 13:50:47;;;;;;;11.40;10.90;;;;;;;;;;5078879;28;20024;-63
2023/10/31 13:53:12;;;;;;;11.70;11.20;;;;;;;;;;5071373;28;20024;-63
2023/10/31 13:55:38;;;;;;;12.00;11.50;;;;;;;;;;5076535;28;20021;-63
2023/10/31 13:58:03;;;;;;;11.60;11.10;;;;;;;;;;5081223;28;20412;-64
2023/10/31 14:00:29;;;;;;;11.95;11.45;;;;;;;;;;5069977;28;20047;-64
2023/10/31 14:02:55;;;;;;;12.07;11.57;;;;;;;;;;5069184;28;20035;-63
2023/10/31 14:05:20;;;;;;;12.05;11.55;;;;;;;;;;5065926;28;20111;-64
2023/10/31 14:07:46;;;;;;;11.73;11.23;;;;;;;;;;5074677;28;20024;-64
2023/10/31 14:10:11;;;;;;;11.75;11.25;;;;;;;;;;5072191;28;20393;-64